Time;durP1;ratioP1;P1;durP2;ratioP2;P2;SDS_P1;SDS_P2;PMS_P1;PMS_P2;Temp;Humidity;BMP_temperature;BMP_pressure;BME280_temperature;BME280_humidity;BME280_pressure;Samples;Min_cycle;Max_cycle;Signal;HPM_P1;HPM_P2
2023/07/28 00:00:09;;;;;;;;;;;16.70;99.90;;;;;;4984493;28;20268;-70
2023/07/28 00:02:36;;;;;;;;;;;16.70;99.90;;;;;;4984923;28;19954;-68
2023/07/28 00:05:04;;;;;;;;;;;16.70;99.90;;;;;;4984653;28;19928;-68
2023/07/28 00:07:33;;;;;;;;;;;16.70;99.90;;;;;;4984827;28;19949;-68
2023/07/28 00:10:00;;;;;;;;;;;16.70;99.90;;;;;;4993985;28;19953;-68
2023/07/28 00:12:27;;;;;;;;;;;16.70;99.90;;;;;;5003952;28;20288;-67
2023/07/28 00:14:53;;;;;;;;;;;16.70;99.90;;;;;;5004121;28;19961;-68
2023/07/28 00:17:20;;;;;;;;;;;16.70;99.90;;;;;;5004049;28;20205;-68
2023/07/28 00:19:46;;;;;;;;;;;16.70;99.90;;;;;;5003849;28;19921;-68
2023/07/28 00:22:14;;;;;;;;;;;16.70;99.90;;;;;;5003794;28;20293;-68
2023/07/28 00:24:41;;;;;;;;;;;16.70;99.90;;;;;;5003711;28;19989;-68
2023/07/28 00:27:07;;;;;;;;;;;16.70;99.90;;;;;;5002688;28;19985;-68
2023/07/28 00:29:34;;;;;;;;;;;16.70;99.90;;;;;;5002803;28;19928;-68
2023/07/28 00:32:01;;;;;;;;;;;16.70;99.90;;;;;;5003571;28;19922;-68
2023/07/28 00:34:27;;;;;;;;;;;16.70;99.90;;;;;;5002811;28;20257;-69
2023/07/28 00:36:54;;;;;;;;;;;16.70;99.90;;;;;;5004030;28;19988;-68
2023/07/28 00:39:24;;;;;;;;;;;16.70;99.90;;;;;;5003064;28;19993;-68
2023/07/28 00:41:51;;;;;;;;;;;16.70;99.90;;;;;;5004110;28;19921;-68
2023/07/28 00:44:17;;;;;;;;;;;16.70;99.90;;;;;;5003722;28;20229;-68
2023/07/28 00:46:44;;;;;;;;;;;16.70;99.90;;;;;;5003975;28;19922;-68
2023/07/28 00:49:11;;;;;;;;;;;16.70;99.90;;;;;;5007383;28;19989;-68
2023/07/28 00:51:38;;;;;;;;;;;16.80;99.90;;;;;;5007945;28;19988;-68
2023/07/28 00:54:05;;;;;;;;;;;16.80;99.90;;;;;;5007681;28;19928;-69
2023/07/28 00:56:33;;;;;;;;;;;16.70;99.90;;;;;;5007835;28;19922;-68
2023/07/28 00:59:00;;;;;;;;;;;16.70;99.90;;;;;;5006476;28;20223;-69
2023/07/28 01:01:27;;;;;;;;;;;16.70;99.90;;;;;;5007763;28;19922;-68
2023/07/28 01:03:54;;;;;;;;;;;16.70;99.90;;;;;;5007459;28;20168;-69
2023/07/28 01:06:27;;;;;;;;;;;16.70;99.90;;;;;;5007462;28;19922;-68
2023/07/28 01:08:56;;;;;;;;;;;16.70;99.90;;;;;;5007063;28;19949;-68
2023/07/28 01:11:23;;;;;;;;;;;16.70;99.90;;;;;;5007323;28;19922;-68
2023/07/28 01:13:51;;;;;;;;;;;16.70;99.90;;;;;;5007087;28;19928;-69
2023/07/28 01:16:18;;;;;;;;;;;16.70;99.90;;;;;;5007446;28;19989;-68
2023/07/28 01:18:44;;;;;;;;;;;16.70;99.90;;;;;;5007143;28;20000;-68
2023/07/28 01:21:15;;;;;;;;;;;16.70;99.90;;;;;;5007120;28;19964;-69
2023/07/28 01:23:45;;;;;;;;;;;16.70;99.90;;;;;;5007216;28;19921;-69
2023/07/28 01:26:13;;;;;;;;;;;16.70;99.90;;;;;;5007229;28;19997;-69
2023/07/28 01:28:42;;;;;;;;;;;16.70;99.90;;;;;;5006921;28;19941;-69
2023/07/28 01:31:08;;;;;;;;;;;16.70;99.90;;;;;;5007111;28;19944;-69
2023/07/28 01:33:35;;;;;;;;;;;16.70;99.90;;;;;;5006572;28;19984;-68
2023/07/28 01:36:02;;;;;;;;;;;16.70;99.90;;;;;;5007074;28;19922;-69
2023/07/28 01:38:29;;;;;;;;;;;16.70;99.90;;;;;;5006751;28;19922;-69
2023/07/28 01:40:56;;;;;;;;;;;16.70;99.90;;;;;;5006565;28;20225;-68
2023/07/28 01:43:22;;;;;;;;;;;16.70;99.90;;;;;;5007026;28;19984;-68
2023/07/28 01:45:50;;;;;;;;;;;16.70;99.90;;;;;;5006862;28;20146;-68
2023/07/28 01:48:17;;;;;;;;;;;16.70;99.90;;;;;;5006602;28;19992;-68
2023/07/28 01:50:43;;;;;;;;;;;16.70;99.90;;;;;;5007018;28;20005;-69
2023/07/28 01:53:10;;;;;;;;;;;16.60;99.90;;;;;;5007072;28;19922;-69
2023/07/28 01:55:37;;;;;;;;;;;16.70;99.90;;;;;;5006733;28;19992;-68
2023/07/28 01:58:03;;;;;;;;;;;16.70;99.90;;;;;;5006539;28;19985;-69
2023/07/28 02:00:30;;;;;;;;;;;16.70;99.90;;;;;;5006002;28;19922;-68
2023/07/28 02:03:01;;;;;;;;;;;16.70;99.90;;;;;;5006209;28;20255;-68
2023/07/28 02:05:28;;;;;;;;;;;16.70;99.90;;;;;;5006504;28;19960;-69
2023/07/28 02:07:54;;;;;;;;;;;16.70;99.90;;;;;;5006390;28;19968;-68
2023/07/28 02:10:22;;;;;;;;;;;16.70;99.90;;;;;;5006127;28;19981;-69
2023/07/28 02:12:49;;;;;;;;;;;16.70;99.90;;;;;;5006323;28;19922;-68
2023/07/28 02:15:16;;;;;;;;;;;16.60;99.90;;;;;;5005887;28;19922;-68
2023/07/28 02:17:42;;;;;;;;;;;16.60;99.90;;;;;;5005550;28;19990;-69
2023/07/28 02:20:12;;;;;;;;;;;16.70;99.90;;;;;;5005795;28;20266;-68
2023/07/28 02:22:39;;;;;;;;;;;16.70;99.90;;;;;;5004875;28;19922;-69
2023/07/28 02:25:06;;;;;;;;;;;16.60;99.90;;;;;;4986544;28;19922;-69
2023/07/28 02:27:33;;;;;;;;;;;16.70;99.90;;;;;;4986502;28;19922;-68
2023/07/28 02:29:59;;;;;;;;;;;16.70;99.90;;;;;;4986224;28;20086;-68
2023/07/28 02:32:27;;;;;;;;;;;16.70;99.90;;;;;;4986264;28;19922;-67
2023/07/28 02:34:53;;;;;;;;;;;16.70;99.90;;;;;;4985997;28;19961;-68
2023/07/28 02:37:21;;;;;;;;;;;16.70;99.90;;;;;;4986544;28;19994;-69
2023/07/28 02:39:48;;;;;;;;;;;16.70;99.90;;;;;;4985714;28;20117;-68
2023/07/28 02:42:14;;;;;;;;;;;16.60;99.90;;;;;;4986368;28;19922;-68
2023/07/28 02:44:41;;;;;;;;;;;16.60;99.90;;;;;;4985891;28;20206;-69
2023/07/28 02:47:07;;;;;;;;;;;16.60;99.90;;;;;;4985843;28;19985;-68
2023/07/28 02:49:34;;;;;;;;;;;16.60;99.90;;;;;;4985952;28;19989;-68
2023/07/28 02:52:02;;;;;;;;;;;16.60;99.90;;;;;;5005255;28;19985;-68
2023/07/28 02:54:30;;;;;;;;;;;16.60;99.90;;;;;;5005563;28;19928;-68
2023/07/28 02:56:57;;;;;;;;;;;16.60;99.90;;;;;;5005168;28;19922;-68
2023/07/28 02:59:24;;;;;;;;;;;16.60;99.90;;;;;;5005355;28;19984;-69
2023/07/28 03:01:51;;;;;;;;;;;16.60;99.90;;;;;;5005169;28;19985;-68
2023/07/28 03:04:18;;;;;;;;;;;16.60;99.90;;;;;;5005301;28;19922;-68
2023/07/28 03:06:45;;;;;;;;;;;16.70;99.90;;;;;;5005293;28;19964;-68
2023/07/28 03:09:11;;;;;;;;;;;16.60;99.90;;;;;;5004773;28;19985;-68
2023/07/28 03:11:39;;;;;;;;;;;16.60;99.90;;;;;;5004770;28;20209;-68
2023/07/28 03:14:06;;;;;;;;;;;16.60;99.90;;;;;;5004989;28;19921;-68
2023/07/28 03:16:33;;;;;;;;;;;16.60;99.90;;;;;;5005104;28;20094;-68
2023/07/28 03:18:59;;;;;;;;;;;16.60;99.90;;;;;;5004808;28;19922;-69
2023/07/28 03:21:26;;;;;;;;;;;16.60;99.90;;;;;;5004832;28;19928;-69
2023/07/28 03:23:52;;;;;;;;;;;16.60;99.90;;;;;;5004621;28;20000;-68
2023/07/28 03:26:19;;;;;;;;;;;16.60;99.90;;;;;;5004999;28;19953;-68
2023/07/28 03:28:47;;;;;;;;;;;16.60;99.90;;;;;;5004463;28;19989;-69
2023/07/28 03:31:14;;;;;;;;;;;16.60;99.90;;;;;;5004596;28;19922;-68
2023/07/28 03:33:40;;;;;;;;;;;16.60;99.90;;;;;;4992854;28;19930;-69
2023/07/28 03:36:08;;;;;;;;;;;16.50;99.90;;;;;;4998564;28;19929;-68
2023/07/28 03:38:34;;;;;;;;;;;16.60;99.90;;;;;;4999931;28;19936;-68
2023/07/28 03:41:01;;;;;;;;;;;16.60;99.90;;;;;;4992640;28;20272;-69
2023/07/28 03:43:28;;;;;;;;;;;16.60;99.90;;;;;;5004497;28;19957;-68
2023/07/28 03:45:56;;;;;;;;;;;16.60;99.90;;;;;;5004637;28;19980;-68
2023/07/28 03:48:22;;;;;;;;;;;16.60;99.90;;;;;;5004331;28;19921;-68
2023/07/28 03:50:49;;;;;;;;;;;16.60;99.90;;;;;;5004420;28;19980;-69
2023/07/28 03:53:16;;;;;;;;;;;16.60;99.90;;;;;;5004671;28;19929;-68
2023/07/28 03:55:42;;;;;;;;;;;16.50;99.90;;;;;;5004406;28;19997;-68
2023/07/28 03:58:09;;;;;;;;;;;16.60;99.90;;;;;;5004235;28;20125;-67
2023/07/28 04:00:36;;;;;;;;;;;16.50;99.90;;;;;;5004107;28;20117;-68
2023/07/28 04:03:03;;;;;;;;;;;16.50;99.90;;;;;;5004442;28;19928;-68
2023/07/28 04:05:30;;;;;;;;;;;16.50;99.90;;;;;;5004271;28;19921;-68
2023/07/28 04:07:57;;;;;;;;;;;16.50;99.90;;;;;;5004180;28;20120;-69
2023/07/28 04:10:24;;;;;;;;;;;16.50;99.90;;;;;;5004272;28;19928;-68
2023/07/28 04:12:50;;;;;;;;;;;16.50;99.90;;;;;;5004392;28;19925;-68
2023/07/28 04:15:17;;;;;;;;;;;16.60;99.90;;;;;;5003869;28;19928;-68
2023/07/28 04:17:44;;;;;;;;;;;16.60;99.90;;;;;;5003793;28;19989;-68
2023/07/28 04:20:12;;;;;;;;;;;16.60;99.90;;;;;;5003689;28;19988;-68
2023/07/28 04:22:39;;;;;;;;;;;16.50;99.90;;;;;;5003663;28;19964;-69
2023/07/28 04:25:06;;;;;;;;;;;16.50;99.90;;;;;;4990300;28;19981;-68
2023/07/28 04:27:32;;;;;;;;;;;16.50;99.90;;;;;;4991915;28;19929;-69
2023/07/28 04:29:59;;;;;;;;;;;16.60;99.90;;;;;;4984205;28;19929;-69
2023/07/28 04:32:26;;;;;;;;;;;16.50;99.90;;;;;;4984881;28;19926;-69
2023/07/28 04:34:53;;;;;;;;;;;16.50;99.90;;;;;;4984273;28;20146;-68
2023/07/28 04:37:21;;;;;;;;;;;16.50;99.90;;;;;;4984768;28;19969;-69
2023/07/28 04:39:48;;;;;;;;;;;16.50;99.90;;;;;;4998333;28;19922;-68
2023/07/28 04:42:14;;;;;;;;;;;16.50;99.90;;;;;;5003770;28;19989;-68
2023/07/28 04:44:41;;;;;;;;;;;16.60;99.90;;;;;;4990164;28;19981;-69
2023/07/28 04:47:07;;;;;;;;;;;16.60;99.90;;;;;;4984225;28;19929;-69
2023/07/28 04:49:34;;;;;;;;;;;16.60;99.90;;;;;;4984003;28;19929;-69
2023/07/28 04:52:01;;;;;;;;;;;16.60;99.90;;;;;;5000615;28;19989;-68
2023/07/28 04:54:29;;;;;;;;;;;16.60;99.90;;;;;;5002117;28;19964;-68
2023/07/28 04:56:55;;;;;;;;;;;16.60;99.90;;;;;;4998791;28;19922;-69
2023/07/28 04:59:22;;;;;;;;;;;16.70;99.90;;;;;;5003080;28;19964;-69
2023/07/28 05:02:00;;;;;;;;;;;16.60;99.90;;;;;;5003141;28;19988;-69
2023/07/28 05:04:27;;;;;;;;;;;16.60;99.90;;;;;;5003937;28;19928;-69
2023/07/28 05:06:54;;;;;;;;;;;16.60;99.90;;;;;;5002947;28;19922;-69
2023/07/28 05:09:20;;;;;;;;;;;16.70;99.90;;;;;;4984096;28;19922;-69
2023/07/28 05:11:48;;;;;;;;;;;16.70;99.90;;;;;;4985662;28;19965;-69
2023/07/28 05:14:15;;;;;;;;;;;16.70;99.90;;;;;;4984200;28;19929;-69
2023/07/28 05:16:41;;;;;;;;;;;16.70;99.90;;;;;;5000485;28;20117;-76
2023/07/28 05:19:08;;;;;;;;;;;16.70;99.90;;;;;;5020375;28;19998;-68
2023/07/28 05:21:35;;;;;;;;;;;16.70;99.90;;;;;;5002977;28;19922;-68
2023/07/28 05:24:01;;;;;;;;;;;16.70;99.90;;;;;;5003095;28;19957;-70
2023/07/28 05:26:28;;;;;;;;;;;16.70;99.90;;;;;;5002980;28;19922;-68
2023/07/28 05:28:56;;;;;;;;;;;16.70;99.90;;;;;;4996855;28;19929;-68
2023/07/28 05:31:23;;;;;;;;;;;16.70;99.90;;;;;;4996748;28;19984;-69
2023/07/28 05:33:49;;;;;;;;;;;16.80;99.90;;;;;;4989235;28;19957;-71
2023/07/28 05:36:16;;;;;;;;;;;16.80;99.90;;;;;;4987446;28;20186;-69
2023/07/28 05:38:42;;;;;;;;;;;16.80;99.90;;;;;;4986540;28;20038;-67
2023/07/28 05:41:09;;;;;;;;;;;16.80;99.90;;;;;;4991238;28;19945;-68
2023/07/28 05:43:36;;;;;;;;;;;16.80;99.90;;;;;;4991312;28;19922;-68
2023/07/28 05:46:03;;;;;;;;;;;16.80;99.90;;;;;;5002207;28;19998;-67
2023/07/28 05:48:30;;;;;;;;;;;16.80;99.90;;;;;;5004097;28;19929;-68
2023/07/28 05:50:57;;;;;;;;;;;16.90;99.90;;;;;;5005511;28;19921;-67
2023/07/28 05:53:23;;;;;;;;;;;16.90;99.90;;;;;;5001382;28;19928;-67
2023/07/28 05:55:50;;;;;;;;;;;16.80;99.90;;;;;;5009452;28;19921;-69
2023/07/28 05:58:17;;;;;;;;;;;16.80;99.90;;;;;;5025357;28;19960;-67
2023/07/28 06:00:43;;;;;;;;;;;16.80;99.90;;;;;;5026211;28;19922;-68
2023/07/28 06:03:12;;;;;;;;;;;16.80;99.90;;;;;;5025761;28;20209;-67
2023/07/28 06:05:39;;;;;;;;;;;16.80;99.90;;;;;;5026009;28;19929;-67
2023/07/28 06:08:06;;;;;;;;;;;16.90;99.90;;;;;;5025075;28;19921;-68
2023/07/28 06:10:32;;;;;;;;;;;16.90;99.90;;;;;;5025555;28;20280;-68
2023/07/28 06:12:59;;;;;;;;;;;16.90;99.90;;;;;;5025481;28;19964;-68
2023/07/28 06:15:25;;;;;;;;;;;16.90;99.90;;;;;;5025442;28;19921;-67
2023/07/28 06:17:52;;;;;;;;;;;17.00;99.90;;;;;;5025794;28;19921;-67
2023/07/28 06:20:20;;;;;;;;;;;17.00;99.90;;;;;;5024979;28;20278;-68
2023/07/28 06:22:47;;;;;;;;;;;17.00;99.90;;;;;;5006081;28;19921;-67
2023/07/28 06:25:13;;;;;;;;;;;17.00;99.90;;;;;;5005890;28;19956;-67
2023/07/28 06:27:40;;;;;;;;;;;17.10;99.90;;;;;;5005874;28;19968;-68
2023/07/28 06:30:07;;;;;;;;;;;17.10;99.90;;;;;;5005963;28;19921;-67
2023/07/28 06:32:34;;;;;;;;;;;17.10;99.90;;;;;;5005776;28;19965;-68
2023/07/28 06:35:01;;;;;;;;;;;17.10;99.90;;;;;;5005416;28;19926;-67
2023/07/28 06:37:28;;;;;;;;;;;17.10;99.90;;;;;;5005481;28;19985;-68
2023/07/28 06:39:55;;;;;;;;;;;17.10;99.90;;;;;;5005697;28;19929;-67
2023/07/28 06:42:23;;;;;;;;;;;17.10;99.90;;;;;;5005727;28;19921;-67
2023/07/28 06:44:50;;;;;;;;;;;17.10;99.90;;;;;;5005171;28;19929;-68
2023/07/28 06:47:17;;;;;;;;;;;17.10;99.90;;;;;;5005345;28;19922;-68
2023/07/28 06:49:43;;;;;;;;;;;17.10;99.90;;;;;;5005484;28;19984;-67
2023/07/28 06:52:10;;;;;;;;;;;17.20;99.90;;;;;;5005080;28;20206;-68
2023/07/28 06:54:38;;;;;;;;;;;17.20;99.90;;;;;;5005435;28;19985;-68
2023/07/28 06:57:06;;;;;;;;;;;17.30;99.90;;;;;;5005270;28;19989;-67
2023/07/28 06:59:33;;;;;;;;;;;17.30;99.90;;;;;;5005233;28;19922;-68
2023/07/28 07:01:59;;;;;;;;;;;17.30;99.90;;;;;;5005219;28;19984;-69
2023/07/28 07:04:26;;;;;;;;;;;17.40;99.90;;;;;;5005029;28;19953;-67
2023/07/28 07:06:52;;;;;;;;;;;17.40;99.90;;;;;;5004178;28;19922;-67
2023/07/28 07:09:19;;;;;;;;;;;17.40;99.90;;;;;;5005047;28;19989;-67
2023/07/28 07:11:48;;;;;;;;;;;17.40;99.90;;;;;;5004964;28;20329;-67
2023/07/28 07:14:15;;;;;;;;;;;17.40;99.90;;;;;;5004723;28;19973;-67
2023/07/28 07:16:41;;;;;;;;;;;17.50;99.90;;;;;;5004997;28;19926;-68
2023/07/28 07:19:08;;;;;;;;;;;17.60;99.90;;;;;;5004858;28;19928;-68
2023/07/28 07:21:35;;;;;;;;;;;17.60;99.90;;;;;;5004566;28;19922;-67
2023/07/28 07:24:03;;;;;;;;;;;17.70;99.90;;;;;;5004935;28;20058;-67
2023/07/28 07:26:31;;;;;;;;;;;17.70;99.90;;;;;;5004606;28;20110;-68
2023/07/28 07:28:59;;;;;;;;;;;17.60;99.90;;;;;;5004720;28;19921;-67
2023/07/28 07:31:25;;;;;;;;;;;17.70;99.90;;;;;;5004951;28;19928;-67
2023/07/28 07:33:52;;;;;;;;;;;17.70;99.90;;;;;;5004679;28;19981;-67
2023/07/28 07:36:19;;;;;;;;;;;17.70;99.90;;;;;;5004608;28;19922;-67
2023/07/28 07:38:46;;;;;;;;;;;17.70;99.90;;;;;;5004117;28;19957;-68
2023/07/28 07:41:15;;;;;;;;;;;17.70;99.90;;;;;;5004344;28;19928;-68
2023/07/28 07:43:42;;;;;;;;;;;17.70;99.90;;;;;;5004538;28;19980;-68
2023/07/28 07:46:11;;;;;;;;;;;17.70;99.90;;;;;;5003394;28;19944;-68
2023/07/28 07:48:38;;;;;;;;;;;17.80;99.90;;;;;;5004289;28;19921;-68
2023/07/28 07:51:04;;;;;;;;;;;17.80;99.90;;;;;;5004407;28;19922;-67
2023/07/28 07:53:31;;;;;;;;;;;17.80;99.90;;;;;;5004056;28;19922;-68
2023/07/28 07:56:00;;;;;;;;;;;17.80;99.90;;;;;;5003327;28;19921;-68
2023/07/28 07:58:27;;;;;;;;;;;17.80;99.90;;;;;;5003671;28;19929;-67
2023/07/28 08:00:54;;;;;;;;;;;17.70;99.90;;;;;;5004310;28;19976;-67
2023/07/28 08:03:22;;;;;;;;;;;17.70;99.90;;;;;;5004371;28;20206;-68
2023/07/28 08:05:49;;;;;;;;;;;17.80;99.90;;;;;;5004305;28;19922;-68
2023/07/28 08:08:17;;;;;;;;;;;17.80;99.90;;;;;;5004080;28;19922;-67
2023/07/28 08:10:44;;;;;;;;;;;17.80;99.90;;;;;;5004259;28;19929;-67
2023/07/28 08:13:10;;;;;;;;;;;17.80;99.90;;;;;;5004174;28;19964;-67
2023/07/28 08:15:37;;;;;;;;;;;17.80;99.90;;;;;;5004064;28;19980;-67
2023/07/28 08:18:03;;;;;;;;;;;17.80;99.90;;;;;;5003664;28;20277;-68
2023/07/28 08:20:31;;;;;;;;;;;17.80;99.90;;;;;;5003678;28;20209;-70
2023/07/28 08:22:58;;;;;;;;;;;17.90;99.90;;;;;;5003842;28;19985;-68
2023/07/28 08:25:24;;;;;;;;;;;17.90;99.90;;;;;;5003536;28;19922;-67
2023/07/28 08:27:51;;;;;;;;;;;17.90;99.90;;;;;;5003976;28;19928;-68
2023/07/28 08:30:18;;;;;;;;;;;17.90;99.90;;;;;;5002247;28;19980;-67
2023/07/28 08:32:44;;;;;;;;;;;17.90;99.90;;;;;;5004129;28;19985;-67
2023/07/28 08:35:11;;;;;;;;;;;18.00;99.90;;;;;;4989522;28;20183;-68
2023/07/28 08:37:39;;;;;;;;;;;18.00;99.90;;;;;;4984489;28;19929;-67
2023/07/28 08:43:57;;;;;;;;;;;18.10;99.90;;;;;;5003323;23;20000;-90
2023/07/28 08:46:24;;;;;;;;;;;18.20;99.90;;;;;;5015135;23;19953;-73
2023/07/28 08:48:51;;;;;;;;;;;18.40;99.90;;;;;;5022556;28;19921;-72
2023/07/28 08:51:17;;;;;;;;;;;18.50;99.90;;;;;;5023884;28;19929;-73
2023/07/28 08:53:45;;;;;;;;;;;18.60;99.90;;;;;;5023914;28;19929;-73
2023/07/28 08:56:12;;;;;;;;;;;18.70;99.90;;;;;;5023741;28;19921;-73
2023/07/28 08:58:40;;;;;;;;;;;18.80;99.90;;;;;;5031587;28;19921;-73
2023/07/28 09:01:06;;;;;;;;;;;18.90;99.90;;;;;;5038116;28;19921;-72
2023/07/28 09:03:33;;;;;;;;;;;19.00;99.90;;;;;;5043441;28;19993;-73
2023/07/28 09:06:01;;;;;;;;;;;19.00;99.90;;;;;;5043265;28;19921;-73
2023/07/28 09:08:28;;;;;;;;;;;18.90;99.90;;;;;;5044686;28;19921;-72
2023/07/28 09:10:56;;;;;;;;;;;18.90;99.90;;;;;;5047396;28;19960;-72
2023/07/28 09:13:23;;;;;;;;;;;18.80;99.90;;;;;;5044915;28;20105;-72
2023/07/28 09:15:49;;;;;;;;;;;18.70;99.90;;;;;;5039378;28;20111;-73
2023/07/28 09:18:17;;;;;;;;;;;18.60;99.90;;;;;;5033015;28;19921;-72
2023/07/28 09:20:43;;;;;;;;;;;18.40;99.90;;;;;;5026967;28;19928;-72
2023/07/28 09:23:11;;;;;;;;;;;18.40;99.90;;;;;;5026919;28;19921;-73
2023/07/28 09:25:38;;;;;;;;;;;18.40;99.90;;;;;;5024946;28;20194;-75
2023/07/28 09:28:06;;;;;;;;;;;18.30;99.90;;;;;;5026421;28;20122;-72
2023/07/28 09:30:51;;;;;;;;;;;18.30;99.90;;;;;;5034783;28;19922;-72
2023/07/28 09:33:36;;;;;;;;;;;18.20;99.90;;;;;;5010777;28;19922;-71
2023/07/28 09:36:22;;;;;;;;;;;18.20;99.90;;;;;;5009440;28;19944;-72
2023/07/28 09:38:49;;;;;;;;;;;18.30;99.90;;;;;;5026526;28;19921;-72
2023/07/28 09:41:16;;;;;;;;;;;18.30;99.90;;;;;;5026751;28;19949;-72
2023/07/28 09:43:44;;;;;;;;;;;18.40;99.90;;;;;;5033503;28;20191;-72
2023/07/28 09:46:11;;;;;;;;;;;18.40;99.90;;;;;;5041552;28;20147;-72
2023/07/28 09:48:38;;;;;;;;;;;18.40;99.90;;;;;;5029767;28;20204;-72
2023/07/28 09:51:09;;;;;;;;;;;18.50;99.90;;;;;;5026554;28;19985;-72
2023/07/28 09:53:39;;;;;;;;;;;18.50;99.90;;;;;;5026618;28;19997;-72
2023/07/28 09:56:06;;;;;;;;;;;18.60;99.90;;;;;;5026619;28;19951;-72
2023/07/28 09:58:34;;;;;;;;;;;18.60;99.90;;;;;;5034352;28;19927;-72
2023/07/28 10:01:05;;;;;;;;;;;18.80;99.90;;;;;;5026433;28;19953;-73
2023/07/28 10:03:32;;;;;;;;;;;18.80;99.90;;;;;;5026383;28;19921;-72
2023/07/28 10:06:00;;;;;;;;;;;18.90;99.90;;;;;;5026362;28;19921;-72
2023/07/28 10:08:26;;;;;;;;;;;19.00;99.90;;;;;;5026100;28;20116;-72
2023/07/28 10:10:54;;;;;;;;;;;19.00;99.90;;;;;;5026062;28;19993;-72
2023/07/28 10:13:21;;;;;;;;;;;19.10;99.90;;;;;;5033996;28;19928;-72
2023/07/28 10:15:48;;;;;;;;;;;19.20;99.90;;;;;;5029838;28;19928;-72
2023/07/28 10:18:16;;;;;;;;;;;19.30;99.90;;;;;;5033295;28;19968;-72
2023/07/28 10:20:46;;;;;;;;;;;19.40;99.90;;;;;;5025207;28;20284;-72
2023/07/28 10:23:13;;;;;;;;;;;19.50;99.90;;;;;;5026078;28;19922;-72
2023/07/28 10:25:41;;;;;;;;;;;19.50;99.90;;;;;;5026095;28;19922;-72
2023/07/28 10:28:08;;;;;;;;;;;19.50;99.90;;;;;;5030120;28;19920;-72
2023/07/28 10:30:52;;;;;;;;;;;19.60;99.90;;;;;;5036715;28;20204;-72
2023/07/28 10:33:28;;;;;;;;;;;19.70;99.90;;;;;;5045756;28;19921;-72
2023/07/28 10:35:55;;;;;;;;;;;19.70;99.90;;;;;;5045851;28;19927;-72
2023/07/28 10:38:32;;;;;;;;;;;19.80;99.90;;;;;;5045393;28;19921;-72
2023/07/28 10:41:09;;;;;;;;;;;19.90;99.90;;;;;;5045464;28;19963;-73
2023/07/28 10:43:36;;;;;;;;;;;20.00;99.90;;;;;;5041274;28;19922;-72
2023/07/28 10:46:09;;;;;;;;;;;20.10;99.90;;;;;;5029285;28;19952;-72
2023/07/28 10:48:41;;;;;;;;;;;20.10;99.90;;;;;;5025305;28;19921;-72
2023/07/28 10:51:08;;;;;;;;;;;20.20;99.90;;;;;;5025371;28;20208;-72
2023/07/28 10:53:34;;;;;;;;;;;20.30;99.90;;;;;;5025579;28;19953;-72
2023/07/28 10:56:02;;;;;;;;;;;20.30;99.90;;;;;;5025213;28;20205;-72
2023/07/28 10:58:29;;;;;;;;;;;20.40;99.90;;;;;;5027149;28;19968;-73
2023/07/28 11:00:56;;;;;;;;;;;20.40;99.90;;;;;;5031924;28;20090;-72
2023/07/28 11:03:23;;;;;;;;;;;20.40;99.90;;;;;;5025393;28;20201;-72
2023/07/28 11:05:51;;;;;;;;;;;20.50;99.90;;;;;;5025033;28;20044;-71
2023/07/28 11:08:18;;;;;;;;;;;20.50;99.90;;;;;;5024681;28;19988;-72
2023/07/28 11:10:45;;;;;;;;;;;20.60;99.90;;;;;;5025251;28;19921;-73
2023/07/28 11:13:12;;;;;;;;;;;20.60;99.90;;;;;;5031272;28;19921;-71
2023/07/28 11:15:39;;;;;;;;;;;20.70;99.90;;;;;;5036519;28;19921;-71
2023/07/28 11:18:06;;;;;;;;;;;20.90;99.90;;;;;;5034963;28;19984;-71
2023/07/28 11:20:33;;;;;;;;;;;21.10;99.90;;;;;;5024620;28;19964;-71
2023/07/28 11:23:08;;;;;;;;;;;21.30;99.90;;;;;;5023162;28;19921;-72
2023/07/28 11:25:35;;;;;;;;;;;21.30;99.90;;;;;;5024855;28;19957;-72
2023/07/28 11:28:05;;;;;;;;;;;21.30;99.90;;;;;;5028894;28;19921;-72
2023/07/28 11:30:32;;;;;;;;;;;21.30;99.90;;;;;;5036071;28;19928;-71
2023/07/28 11:32:59;;;;;;;;;;;21.40;99.90;;;;;;5044356;28;20161;-72
2023/07/28 11:35:25;;;;;;;;;;;21.40;99.90;;;;;;5044174;28;19959;-70
2023/07/28 11:37:53;;;;;;;;;;;21.30;99.90;;;;;;5041840;28;20209;-70
2023/07/28 11:40:22;;;;;;;;;;;21.30;99.90;;;;;;5023467;28;19927;-71
2023/07/28 11:42:50;;;;;;;;;;;21.40;99.90;;;;;;5023508;28;19985;-71
2023/07/28 11:45:18;;;;;;;;;;;21.50;99.90;;;;;;5032227;28;19921;-71
2023/07/28 11:47:52;;;;;;;;;;;21.50;99.90;;;;;;5024091;28;19921;-70
2023/07/28 11:50:22;;;;;;;;;;;21.70;99.90;;;;;;5024226;28;19928;-71
2023/07/28 11:52:49;;;;;;;;;;;21.80;99.90;;;;;;5024409;28;19922;-71
2023/07/28 11:55:16;;;;;;;;;;;21.90;99.90;;;;;;5023563;28;19953;-72
2023/07/28 11:57:44;;;;;;;;;;;21.90;99.90;;;;;;5024815;28;19921;-72
2023/07/28 12:00:12;;;;;;;;;;;21.90;99.90;;;;;;5035247;28;19922;-71
2023/07/28 12:02:39;;;;;;;;;;;21.70;99.90;;;;;;5024174;28;19922;-71
2023/07/28 12:05:12;;;;;;;;;;;21.60;99.90;;;;;;5024153;28;19948;-70
2023/07/28 12:07:40;;;;;;;;;;;21.50;99.90;;;;;;5024140;28;19988;-71
2023/07/28 12:10:08;;;;;;;;;;;21.50;99.90;;;;;;5023892;28;19922;-70
2023/07/28 12:12:40;;;;;;;;;;;21.50;99.90;;;;;;5025749;28;19960;-70
2023/07/28 12:15:20;;;;;;;;;;;21.50;99.90;;;;;;5035490;28;19928;-71
2023/07/28 12:18:00;;;;;;;;;;;21.40;99.90;;;;;;5038258;28;19951;-71
2023/07/28 12:20:27;;;;;;;;;;;21.40;99.90;;;;;;5023465;28;19922;-71
2023/07/28 12:22:53;;;;;;;;;;;21.40;99.90;;;;;;5022890;28;19921;-71
2023/07/28 12:25:20;;;;;;;;;;;21.50;99.90;;;;;;5023681;28;19922;-72
2023/07/28 12:27:47;;;;;;;;;;;21.50;99.90;;;;;;5023719;28;19984;-73
2023/07/28 12:30:14;;;;;;;;;;;21.60;99.90;;;;;;5031569;28;19929;-71
2023/07/28 12:32:42;;;;;;;;;;;21.70;99.90;;;;;;5023449;28;19993;-72
2023/07/28 12:35:09;;;;;;;;;;;21.90;99.90;;;;;;5023361;28;20267;-72
2023/07/28 12:37:35;;;;;;;;;;;21.90;99.90;;;;;;5022796;28;19928;-72
2023/07/28 12:40:03;;;;;;;;;;;21.90;99.90;;;;;;5023460;28;19936;-72
2023/07/28 12:42:29;;;;;;;;;;;22.00;99.90;;;;;;5024124;28;19937;-72
2023/07/28 12:44:56;;;;;;;;;;;22.30;99.90;;;;;;5037914;28;19925;-72
2023/07/28 12:47:22;;;;;;;;;;;22.40;99.90;;;;;;5027574;28;19921;-72
2023/07/28 12:49:50;;;;;;;;;;;22.50;99.90;;;;;;5027209;28;19972;-72
2023/07/28 12:52:17;;;;;;;;;;;22.60;99.90;;;;;;5027254;28;20208;-72
2023/07/28 12:54:44;;;;;;;;;;;22.70;99.90;;;;;;5027428;28;19921;-72
2023/07/28 12:57:12;;;;;;;;;;;22.70;99.90;;;;;;5027311;28;19957;-72
2023/07/28 12:59:39;;;;;;;;;;;22.70;99.90;;;;;;5037399;28;19928;-73
2023/07/28 13:02:05;;;;;;;;;;;22.70;99.90;;;;;;5047305;28;19921;-72
2023/07/28 13:04:32;;;;;;;;;;;22.80;99.90;;;;;;5047202;28;20008;-73
2023/07/28 13:07:00;;;;;;;;;;;22.90;99.90;;;;;;5047165;28;19988;-73
2023/07/28 13:09:27;;;;;;;;;;;23.10;99.90;;;;;;5047109;28;19921;-73
2023/07/28 13:11:54;;;;;;;;;;;23.30;99.90;;;;;;5047069;28;20156;-73
2023/07/28 13:14:20;;;;;;;;;;;23.50;99.90;;;;;;5037097;28;19993;-73
2023/07/28 13:16:47;;;;;;;;;;;23.60;99.90;;;;;;5007348;28;20205;-73
2023/07/28 13:19:13;;;;;;;;;;;23.50;99.90;;;;;;5022396;28;20113;-73
2023/07/28 13:21:41;;;;;;;;;;;23.30;99.90;;;;;;5027129;28;19921;-74
2023/07/28 13:24:09;;;;;;;;;;;23.20;99.90;;;;;;5027028;28;19927;-72
2023/07/28 13:26:35;;;;;;;;;;;23.20;99.90;;;;;;5026937;28;19944;-72
2023/07/28 13:29:02;;;;;;;;;;;23.10;99.90;;;;;;5034877;28;19921;-73
2023/07/28 13:31:29;;;;;;;;;;;23.10;99.90;;;;;;5044122;28;19984;-73
2023/07/28 13:33:56;;;;;;;;;;;23.10;99.90;;;;;;5046671;28;20163;-74
2023/07/28 13:36:25;;;;;;;;;;;23.20;99.90;;;;;;5028015;28;19949;-73
2023/07/28 13:38:52;;;;;;;;;;;23.20;99.90;;;;;;5013111;28;19956;-73
2023/07/28 13:41:20;;;;;;;;;;;23.20;99.90;;;;;;5020263;28;19953;-73
2023/07/28 13:43:46;;;;;;;;;;;23.10;99.90;;;;;;5034088;28;19927;-73
2023/07/28 13:46:13;;;;;;;;;;;23.00;99.90;;;;;;5021101;28;19961;-73
2023/07/28 13:48:40;;;;;;;;;;;23.00;99.90;;;;;;5026070;28;19922;-73
2023/07/28 13:51:07;;;;;;;;;;;22.90;99.90;;;;;;5026228;28;20205;-73
2023/07/28 13:53:33;;;;;;;;;;;22.80;99.90;;;;;;5013633;28;19929;-72
2023/07/28 13:56:00;;;;;;;;;;;22.70;99.90;;;;;;5017215;28;19921;-72
2023/07/28 13:58:28;;;;;;;;;;;22.60;99.90;;;;;;5032348;28;19921;-71
2023/07/28 14:00:54;;;;;;;;;;;22.50;99.90;;;;;;5026220;28;19927;-71
2023/07/28 14:03:21;;;;;;;;;;;22.60;99.90;;;;;;5023656;28;19921;-72
2023/07/28 14:05:48;;;;;;;;;;;22.90;99.90;;;;;;5025131;28;19922;-71
2023/07/28 14:08:15;;;;;;;;;;;23.20;99.90;;;;;;5020443;28;20112;-71
2023/07/28 14:10:44;;;;;;;;;;;23.40;99.90;;;;;;5014449;28;19966;-72
2023/07/28 14:13:11;;;;;;;;;;;23.50;99.90;;;;;;5014578;28;19971;-71
2023/07/28 14:15:39;;;;;;;;;;;23.40;99.90;;;;;;5032580;28;20208;-71
2023/07/28 14:18:05;;;;;;;;;;;23.30;99.90;;;;;;5025478;28;19921;-71
2023/07/28 14:20:32;;;;;;;;;;;23.20;99.90;;;;;;5025931;28;19989;-72